sensor_id;sensor_type;location;lat;lon;timestamp;P1;durP1;ratioP1;P2;durP2;ratioP2
66485;SDS011;53303;47.476;8.084;2023-08-06T00:00:24;6.68;;;1.63;;
66485;SDS011;53303;47.476;8.084;2023-08-06T00:02:49;5.22;;;1.63;;
66485;SDS011;53303;47.476;8.084;2023-08-06T00:05:15;5.68;;;1.55;;
66485;SDS011;53303;47.476;8.084;2023-08-06T00:07:46;4.00;;;1.45;;
66485;SDS011;53303;47.476;8.084;2023-08-06T00:10:14;4.25;;;1.35;;
66485;SDS011;53303;47.476;8.084;2023-08-06T00:12:40;4.60;;;1.70;;
66485;SDS011;53303;47.476;8.084;2023-08-06T00:15:05;4.85;;;1.63;;
66485;SDS011;53303;47.476;8.084;2023-08-06T00:17:31;5.10;;;1.70;;
66485;SDS011;53303;47.476;8.084;2023-08-06T00:19:57;4.40;;;1.30;;
66485;SDS011;53303;47.476;8.084;2023-08-06T00:22:33;4.28;;;1.52;;
66485;SDS011;53303;47.476;8.084;2023-08-06T00:25:00;4.43;;;1.38;;
66485;SDS011;53303;47.476;8.084;2023-08-06T00:27:26;4.80;;;1.48;;
66485;SDS011;53303;47.476;8.084;2023-08-06T00:29:53;3.58;;;1.30;;
66485;SDS011;53303;47.476;8.084;2023-08-06T00:32:19;5.18;;;1.30;;
66485;SDS011;53303;47.476;8.084;2023-08-06T00:34:45;5.10;;;1.30;;
66485;SDS011;53303;47.476;8.084;2023-08-06T00:37:10;4.57;;;1.23;;
66485;SDS011;53303;47.476;8.084;2023-08-06T00:39:35;3.65;;;1.30;;
66485;SDS011;53303;47.476;8.084;2023-08-06T00:42:03;3.88;;;1.52;;
66485;SDS011;53303;47.476;8.084;2023-08-06T00:44:29;4.90;;;1.50;;
66485;SDS011;53303;47.476;8.084;2023-08-06T00:46:54;4.00;;;1.33;;
66485;SDS011;53303;47.476;8.084;2023-08-06T00:49:20;6.32;;;1.60;;
66485;SDS011;53303;47.476;8.084;2023-08-06T00:51:48;5.95;;;1.40;;
66485;SDS011;53303;47.476;8.084;2023-08-06T00:54:15;4.40;;;1.10;;
66485;SDS011;53303;47.476;8.084;2023-08-06T00:56:40;6.70;;;1.50;;
66485;SDS011;53303;47.476;8.084;2023-08-06T00:59:07;3.92;;;1.10;;
66485;SDS011;53303;47.476;8.084;2023-08-06T01:01:34;3.78;;;1.40;;
66485;SDS011;53303;47.476;8.084;2023-08-06T01:04:00;3.83;;;1.27;;
66485;SDS011;53303;47.476;8.084;2023-08-06T01:06:39;6.13;;;1.52;;
66485;SDS011;53303;47.476;8.084;2023-08-06T01:17:36;3.88;;;1.10;;
66485;SDS011;53303;47.476;8.084;2023-08-06T01:20:05;6.72;;;1.40;;
66485;SDS011;53303;47.476;8.084;2023-08-06T01:22:31;4.22;;;1.20;;
66485;SDS011;53303;47.476;8.084;2023-08-06T01:24:56;4.63;;;1.60;;
66485;SDS011;53303;47.476;8.084;2023-08-06T01:27:27;4.35;;;1.10;;
66485;SDS011;53303;47.476;8.084;2023-08-06T01:30:07;3.70;;;1.30;;
66485;SDS011;53303;47.476;8.084;2023-08-06T01:32:45;5.72;;;1.38;;
66485;SDS011;53303;47.476;8.084;2023-08-06T01:35:15;4.05;;;1.30;;
66485;SDS011;53303;47.476;8.084;2023-08-06T01:37:43;4.75;;;1.33;;
66485;SDS011;53303;47.476;8.084;2023-08-06T01:40:12;3.55;;;1.08;;
66485;SDS011;53303;47.476;8.084;2023-08-06T01:42:38;7.28;;;1.45;;
66485;SDS011;53303;47.476;8.084;2023-08-06T01:45:05;5.28;;;1.15;;
66485;SDS011;53303;47.476;8.084;2023-08-06T01:47:32;4.35;;;1.42;;
66485;SDS011;53303;47.476;8.084;2023-08-06T01:49:57;2.20;;;0.80;;
66485;SDS011;53303;47.476;8.084;2023-08-06T01:52:22;8.45;;;1.30;;
66485;SDS011;53303;47.476;8.084;2023-08-06T01:54:51;3.75;;;1.10;;
66485;SDS011;53303;47.476;8.084;2023-08-06T01:57:16;9.77;;;1.58;;
66485;SDS011;53303;47.476;8.084;2023-08-06T01:59:42;6.65;;;1.15;;
66485;SDS011;53303;47.476;8.084;2023-08-06T02:02:09;6.43;;;1.40;;
66485;SDS011;53303;47.476;8.084;2023-08-06T02:04:37;3.75;;;1.20;;
66485;SDS011;53303;47.476;8.084;2023-08-06T02:07:02;5.07;;;1.00;;
66485;SDS011;53303;47.476;8.084;2023-08-06T02:09:28;5.15;;;1.30;;
66485;SDS011;53303;47.476;8.084;2023-08-06T02:11:53;4.47;;;1.42;;
66485;SDS011;53303;47.476;8.084;2023-08-06T02:14:19;5.07;;;1.13;;
66485;SDS011;53303;47.476;8.084;2023-08-06T02:16:44;2.83;;;1.13;;
66485;SDS011;53303;47.476;8.084;2023-08-06T02:19:09;2.88;;;0.98;;
66485;SDS011;53303;47.476;8.084;2023-08-06T02:21:35;3.17;;;1.10;;
66485;SDS011;53303;47.476;8.084;2023-08-06T02:24:00;4.20;;;1.30;;
66485;SDS011;53303;47.476;8.084;2023-08-06T02:26:28;3.05;;;1.00;;
66485;SDS011;53303;47.476;8.084;2023-08-06T02:28:56;4.32;;;1.23;;
66485;SDS011;53303;47.476;8.084;2023-08-06T02:31:24;3.30;;;1.17;;
66485;SDS011;53303;47.476;8.084;2023-08-06T02:33:50;3.65;;;1.35;;
66485;SDS011;53303;47.476;8.084;2023-08-06T02:36:15;6.30;;;1.10;;
66485;SDS011;53303;47.476;8.084;2023-08-06T02:38:41;3.83;;;1.23;;
66485;SDS011;53303;47.476;8.084;2023-08-06T02:41:06;4.03;;;1.27;;
66485;SDS011;53303;47.476;8.084;2023-08-06T02:43:32;3.42;;;1.20;;
66485;SDS011;53303;47.476;8.084;2023-08-06T02:45:58;3.92;;;1.30;;
66485;SDS011;53303;47.476;8.084;2023-08-06T02:48:24;2.78;;;1.00;;
66485;SDS011;53303;47.476;8.084;2023-08-06T02:50:50;3.75;;;1.20;;
66485;SDS011;53303;47.476;8.084;2023-08-06T02:53:17;4.03;;;1.10;;
66485;SDS011;53303;47.476;8.084;2023-08-06T02:55:46;2.92;;;0.90;;
66485;SDS011;53303;47.476;8.084;2023-08-06T02:58:15;2.72;;;1.20;;
66485;SDS011;53303;47.476;8.084;2023-08-06T03:00:47;2.10;;;0.88;;
66485;SDS011;53303;47.476;8.084;2023-08-06T03:03:27;4.80;;;1.13;;
66485;SDS011;53303;47.476;8.084;2023-08-06T03:05:53;2.45;;;1.17;;
66485;SDS011;53303;47.476;8.084;2023-08-06T03:08:19;4.57;;;1.40;;
66485;SDS011;53303;47.476;8.084;2023-08-06T03:10:47;2.13;;;0.98;;
66485;SDS011;53303;47.476;8.084;2023-08-06T03:13:13;4.63;;;1.23;;
66485;SDS011;53303;47.476;8.084;2023-08-06T03:15:39;3.40;;;0.95;;
66485;SDS011;53303;47.476;8.084;2023-08-06T03:18:04;4.53;;;1.05;;
66485;SDS011;53303;47.476;8.084;2023-08-06T03:20:31;3.08;;;1.27;;
66485;SDS011;53303;47.476;8.084;2023-08-06T03:22:57;2.58;;;1.02;;
66485;SDS011;53303;47.476;8.084;2023-08-06T03:25:23;2.70;;;1.00;;
66485;SDS011;53303;47.476;8.084;2023-08-06T03:27:53;5.68;;;1.02;;
66485;SDS011;53303;47.476;8.084;2023-08-06T03:30:18;4.43;;;1.30;;
66485;SDS011;53303;47.476;8.084;2023-08-06T03:32:46;2.45;;;1.10;;
66485;SDS011;53303;47.476;8.084;2023-08-06T03:35:12;2.78;;;1.00;;
66485;SDS011;53303;47.476;8.084;2023-08-06T03:37:39;4.68;;;1.00;;
66485;SDS011;53303;47.476;8.084;2023-08-06T03:40:05;3.65;;;0.98;;
66485;SDS011;53303;47.476;8.084;2023-08-06T03:42:31;4.80;;;1.20;;
66485;SDS011;53303;47.476;8.084;2023-08-06T03:44:56;4.00;;;1.23;;
66485;SDS011;53303;47.476;8.084;2023-08-06T03:47:24;6.75;;;0.88;;
66485;SDS011;53303;47.476;8.084;2023-08-06T03:49:52;3.15;;;0.93;;
66485;SDS011;53303;47.476;8.084;2023-08-06T03:52:17;2.45;;;1.10;;
66485;SDS011;53303;47.476;8.084;2023-08-06T03:54:43;2.45;;;0.85;;
66485;SDS011;53303;47.476;8.084;2023-08-06T03:57:08;3.60;;;0.80;;
66485;SDS011;53303;47.476;8.084;2023-08-06T03:59:36;2.03;;;1.00;;
66485;SDS011;53303;47.476;8.084;2023-08-06T04:02:02;2.38;;;0.88;;
66485;SDS011;53303;47.476;8.084;2023-08-06T04:04:28;3.78;;;0.80;;
66485;SDS011;53303;47.476;8.084;2023-08-06T04:06:53;2.72;;;0.90;;
66485;SDS011;53303;47.476;8.084;2023-08-06T04:09:19;2.88;;;0.95;;
66485;SDS011;53303;47.476;8.084;2023-08-06T04:11:44;3.78;;;0.90;;
66485;SDS011;53303;47.476;8.084;2023-08-06T04:14:10;1.77;;;0.60;;
66485;SDS011;53303;47.476;8.084;2023-08-06T04:16:35;2.55;;;0.77;;
66485;SDS011;53303;47.476;8.084;2023-08-06T04:19:00;4.65;;;1.30;;
66485;SDS011;53303;47.476;8.084;2023-08-06T04:21:26;3.83;;;0.95;;
66485;SDS011;53303;47.476;8.084;2023-08-06T04:23:54;4.90;;;1.00;;
66485;SDS011;53303;47.476;8.084;2023-08-06T04:26:21;3.13;;;0.80;;
66485;SDS011;53303;47.476;8.084;2023-08-06T04:28:46;4.30;;;0.80;;
66485;SDS011;53303;47.476;8.084;2023-08-06T04:31:11;8.15;;;1.00;;
66485;SDS011;53303;47.476;8.084;2023-08-06T04:33:39;2.95;;;0.80;;
66485;SDS011;53303;47.476;8.084;2023-08-06T04:36:05;5.22;;;1.00;;
66485;SDS011;53303;47.476;8.084;2023-08-06T04:38:31;2.30;;;0.75;;
66485;SDS011;53303;47.476;8.084;2023-08-06T04:40:57;4.22;;;1.17;;
66485;SDS011;53303;47.476;8.084;2023-08-06T04:43:23;3.42;;;0.90;;
66485;SDS011;53303;47.476;8.084;2023-08-06T04:45:49;2.97;;;0.95;;
66485;SDS011;53303;47.476;8.084;2023-08-06T04:48:15;4.80;;;0.90;;
66485;SDS011;53303;47.476;8.084;2023-08-06T04:50:44;2.53;;;0.85;;
66485;SDS011;53303;47.476;8.084;2023-08-06T04:53:10;2.83;;;0.80;;
66485;SDS011;53303;47.476;8.084;2023-08-06T04:55:36;2.63;;;0.90;;
66485;SDS011;53303;47.476;8.084;2023-08-06T04:58:01;5.55;;;1.00;;
66485;SDS011;53303;47.476;8.084;2023-08-06T05:00:27;4.00;;;0.98;;
66485;SDS011;53303;47.476;8.084;2023-08-06T05:02:52;2.95;;;1.00;;
66485;SDS011;53303;47.476;8.084;2023-08-06T05:05:20;4.50;;;0.80;;
66485;SDS011;53303;47.476;8.084;2023-08-06T05:07:49;5.22;;;1.05;;
66485;SDS011;53303;47.476;8.084;2023-08-06T05:10:15;3.65;;;0.70;;
66485;SDS011;53303;47.476;8.084;2023-08-06T05:12:40;3.95;;;0.52;;
66485;SDS011;53303;47.476;8.084;2023-08-06T05:15:06;2.63;;;0.80;;
66485;SDS011;53303;47.476;8.084;2023-08-06T05:17:32;6.20;;;1.02;;
66485;SDS011;53303;47.476;8.084;2023-08-06T05:19:57;3.20;;;0.80;;
66485;SDS011;53303;47.476;8.084;2023-08-06T05:22:23;5.13;;;0.65;;
66485;SDS011;53303;47.476;8.084;2023-08-06T05:24:48;6.50;;;0.93;;
66485;SDS011;53303;47.476;8.084;2023-08-06T05:27:14;4.57;;;0.80;;
66485;SDS011;53303;47.476;8.084;2023-08-06T05:29:39;2.35;;;0.70;;
66485;SDS011;53303;47.476;8.084;2023-08-06T05:32:05;2.55;;;1.00;;
66485;SDS011;53303;47.476;8.084;2023-08-06T05:34:32;2.35;;;0.63;;
66485;SDS011;53303;47.476;8.084;2023-08-06T05:36:58;2.40;;;0.50;;
66485;SDS011;53303;47.476;8.084;2023-08-06T05:39:23;3.00;;;0.70;;
66485;SDS011;53303;47.476;8.084;2023-08-06T05:41:49;2.05;;;0.60;;
66485;SDS011;53303;47.476;8.084;2023-08-06T05:44:15;3.03;;;0.75;;
66485;SDS011;53303;47.476;8.084;2023-08-06T05:46:43;2.17;;;0.60;;
66485;SDS011;53303;47.476;8.084;2023-08-06T05:49:08;5.28;;;0.85;;
66485;SDS011;53303;47.476;8.084;2023-08-06T05:51:34;4.68;;;1.02;;
66485;SDS011;53303;47.476;8.084;2023-08-06T05:53:59;2.72;;;0.70;;
66485;SDS011;53303;47.476;8.084;2023-08-06T05:56:24;0.93;;;0.40;;
66485;SDS011;53303;47.476;8.084;2023-08-06T05:58:50;2.60;;;0.60;;
66485;SDS011;53303;47.476;8.084;2023-08-06T06:01:18;3.40;;;0.85;;
66485;SDS011;53303;47.476;8.084;2023-08-06T06:03:43;1.73;;;0.50;;
66485;SDS011;53303;47.476;8.084;2023-08-06T06:06:11;5.85;;;0.90;;
66485;SDS011;53303;47.476;8.084;2023-08-06T06:08:39;2.40;;;0.70;;
66485;SDS011;53303;47.476;8.084;2023-08-06T06:11:04;1.23;;;0.30;;
66485;SDS011;53303;47.476;8.084;2023-08-06T06:13:30;1.90;;;0.60;;
66485;SDS011;53303;47.476;8.084;2023-08-06T06:15:55;2.20;;;0.40;;
66485;SDS011;53303;47.476;8.084;2023-08-06T06:18:21;2.25;;;0.68;;
66485;SDS011;53303;47.476;8.084;2023-08-06T06:20:47;2.28;;;0.65;;
66485;SDS011;53303;47.476;8.084;2023-08-06T06:23:12;5.70;;;0.90;;
66485;SDS011;53303;47.476;8.084;2023-08-06T06:25:43;4.50;;;0.90;;
66485;SDS011;53303;47.476;8.084;2023-08-06T06:28:13;3.33;;;1.00;;
66485;SDS011;53303;47.476;8.084;2023-08-06T06:30:40;10.00;;;1.17;;
66485;SDS011;53303;47.476;8.084;2023-08-06T06:33:07;7.38;;;1.02;;
66485;SDS011;53303;47.476;8.084;2023-08-06T06:35:32;4.60;;;0.80;;
66485;SDS011;53303;47.476;8.084;2023-08-06T06:37:57;6.80;;;1.10;;
66485;SDS011;53303;47.476;8.084;2023-08-06T06:40:23;10.02;;;1.10;;
66485;SDS011;53303;47.476;8.084;2023-08-06T06:42:48;5.85;;;0.90;;
66485;SDS011;53303;47.476;8.084;2023-08-06T06:45:14;4.00;;;0.73;;
66485;SDS011;53303;47.476;8.084;2023-08-06T06:47:39;5.53;;;0.95;;
66485;SDS011;53303;47.476;8.084;2023-08-06T06:50:05;4.13;;;0.55;;
66485;SDS011;53303;47.476;8.084;2023-08-06T06:52:30;1.90;;;0.70;;
66485;SDS011;53303;47.476;8.084;2023-08-06T06:54:58;3.35;;;0.80;;
66485;SDS011;53303;47.476;8.084;2023-08-06T06:57:28;2.90;;;0.93;;
66485;SDS011;53303;47.476;8.084;2023-08-06T06:59:54;2.17;;;0.50;;
66485;SDS011;53303;47.476;8.084;2023-08-06T07:02:19;3.15;;;0.70;;
66485;SDS011;53303;47.476;8.084;2023-08-06T07:04:44;3.22;;;0.70;;
66485;SDS011;53303;47.476;8.084;2023-08-06T07:07:10;4.10;;;0.80;;
66485;SDS011;53303;47.476;8.084;2023-08-06T07:09:35;3.05;;;0.70;;
66485;SDS011;53303;47.476;8.084;2023-08-06T07:12:01;5.32;;;0.60;;
66485;SDS011;53303;47.476;8.084;2023-08-06T07:14:29;2.38;;;0.73;;
66485;SDS011;53303;47.476;8.084;2023-08-06T07:16:54;2.33;;;0.68;;
66485;SDS011;53303;47.476;8.084;2023-08-06T07:19:25;4.20;;;0.50;;
66485;SDS011;53303;47.476;8.084;2023-08-06T07:21:51;4.85;;;0.40;;
66485;SDS011;53303;47.476;8.084;2023-08-06T07:24:16;3.22;;;0.90;;
66485;SDS011;53303;47.476;8.084;2023-08-06T07:26:44;4.32;;;0.90;;
66485;SDS011;53303;47.476;8.084;2023-08-06T07:29:09;1.65;;;0.60;;
66485;SDS011;53303;47.476;8.084;2023-08-06T07:31:35;5.65;;;0.95;;
66485;SDS011;53303;47.476;8.084;2023-08-06T07:34:01;4.43;;;0.70;;
66485;SDS011;53303;47.476;8.084;2023-08-06T07:36:26;1.92;;;0.63;;
66485;SDS011;53303;47.476;8.084;2023-08-06T07:38:57;3.03;;;0.30;;
66485;SDS011;53303;47.476;8.084;2023-08-06T07:41:23;2.00;;;0.60;;
66485;SDS011;53303;47.476;8.084;2023-08-06T07:43:48;2.17;;;0.55;;
66485;SDS011;53303;47.476;8.084;2023-08-06T07:46:14;1.40;;;0.50;;
66485;SDS011;53303;47.476;8.084;2023-08-06T07:48:40;1.73;;;0.50;;
66485;SDS011;53303;47.476;8.084;2023-08-06T07:51:07;1.10;;;0.35;;
66485;SDS011;53303;47.476;8.084;2023-08-06T07:53:33;1.58;;;0.55;;
66485;SDS011;53303;47.476;8.084;2023-08-06T07:55:58;1.38;;;0.55;;
66485;SDS011;53303;47.476;8.084;2023-08-06T07:58:24;0.82;;;0.47;;
66485;SDS011;53303;47.476;8.084;2023-08-06T08:00:51;3.13;;;0.50;;
66485;SDS011;53303;47.476;8.084;2023-08-06T08:03:16;2.83;;;0.60;;
66485;SDS011;53303;47.476;8.084;2023-08-06T08:05:42;0.73;;;0.55;;
66485;SDS011;53303;47.476;8.084;2023-08-06T08:08:08;1.08;;;0.40;;
66485;SDS011;53303;47.476;8.084;2023-08-06T08:10:34;1.45;;;0.55;;
66485;SDS011;53303;47.476;8.084;2023-08-06T08:13:03;0.57;;;0.30;;
66485;SDS011;53303;47.476;8.084;2023-08-06T08:15:32;0.85;;;0.57;;
66485;SDS011;53303;47.476;8.084;2023-08-06T08:18:03;0.38;;;0.20;;
66485;SDS011;53303;47.476;8.084;2023-08-06T08:20:28;0.85;;;0.40;;
66485;SDS011;53303;47.476;8.084;2023-08-06T08:22:57;1.83;;;0.30;;
66485;SDS011;53303;47.476;8.084;2023-08-06T08:25:23;1.65;;;0.50;;
66485;SDS011;53303;47.476;8.084;2023-08-06T08:27:51;0.55;;;0.40;;
66485;SDS011;53303;47.476;8.084;2023-08-06T08:30:17;0.30;;;0.30;;
66485;SDS011;53303;47.476;8.084;2023-08-06T08:32:42;3.83;;;0.20;;
66485;SDS011;53303;47.476;8.084;2023-08-06T08:35:08;2.65;;;0.50;;
66485;SDS011;53303;47.476;8.084;2023-08-06T08:37:37;1.90;;;0.40;;
66485;SDS011;53303;47.476;8.084;2023-08-06T08:40:06;1.85;;;0.20;;
66485;SDS011;53303;47.476;8.084;2023-08-06T08:42:35;1.02;;;0.50;;
66485;SDS011;53303;47.476;8.084;2023-08-06T08:45:02;0.45;;;0.45;;
66485;SDS011;53303;47.476;8.084;2023-08-06T08:47:29;2.35;;;0.40;;
66485;SDS011;53303;47.476;8.084;2023-08-06T08:49:56;0.52;;;0.32;;
66485;SDS011;53303;47.476;8.084;2023-08-06T08:52:22;1.17;;;0.40;;
66485;SDS011;53303;47.476;8.084;2023-08-06T08:54:49;1.83;;;0.50;;
66485;SDS011;53303;47.476;8.084;2023-08-06T08:57:18;2.10;;;0.60;;
66485;SDS011;53303;47.476;8.084;2023-08-06T08:59:43;0.95;;;0.13;;
66485;SDS011;53303;47.476;8.084;2023-08-06T09:02:10;0.73;;;0.47;;
66485;SDS011;53303;47.476;8.084;2023-08-06T09:04:42;1.17;;;0.30;;
66485;SDS011;53303;47.476;8.084;2023-08-06T09:07:12;3.85;;;0.40;;
66485;SDS011;53303;47.476;8.084;2023-08-06T09:09:40;0.40;;;0.30;;
66485;SDS011;53303;47.476;8.084;2023-08-06T09:12:16;0.30;;;0.30;;
66485;SDS011;53303;47.476;8.084;2023-08-06T09:14:42;2.60;;;0.50;;
66485;SDS011;53303;47.476;8.084;2023-08-06T09:17:08;0.90;;;0.40;;
66485;SDS011;53303;47.476;8.084;2023-08-06T09:19:36;1.02;;;0.30;;
66485;SDS011;53303;47.476;8.084;2023-08-06T09:22:02;1.05;;;0.28;;
66485;SDS011;53303;47.476;8.084;2023-08-06T09:24:28;0.98;;;0.40;;
66485;SDS011;53303;47.476;8.084;2023-08-06T09:26:53;1.25;;;0.43;;
66485;SDS011;53303;47.476;8.084;2023-08-06T09:29:19;0.85;;;0.20;;
66485;SDS011;53303;47.476;8.084;2023-08-06T09:31:45;0.70;;;0.30;;
66485;SDS011;53303;47.476;8.084;2023-08-06T09:34:19;1.00;;;0.65;;
66485;SDS011;53303;47.476;8.084;2023-08-06T09:39:14;0.65;;;0.40;;
66485;SDS011;53303;47.476;8.084;2023-08-06T09:41:41;1.35;;;0.52;;
66485;SDS011;53303;47.476;8.084;2023-08-06T09:44:20;0.90;;;0.50;;
66485;SDS011;53303;47.476;8.084;2023-08-06T09:46:52;0.20;;;0.20;;
66485;SDS011;53303;47.476;8.084;2023-08-06T09:49:24;0.85;;;0.60;;
66485;SDS011;53303;47.476;8.084;2023-08-06T09:51:52;1.40;;;0.70;;
66485;SDS011;53303;47.476;8.084;2023-08-06T09:54:23;0.75;;;0.70;;
66485;SDS011;53303;47.476;8.084;2023-08-06T09:56:49;0.55;;;0.40;;
66485;SDS011;53303;47.476;8.084;2023-08-06T09:59:15;1.13;;;0.40;;
66485;SDS011;53303;47.476;8.084;2023-08-06T10:01:42;1.88;;;0.55;;
66485;SDS011;53303;47.476;8.084;2023-08-06T10:04:08;1.85;;;0.57;;
66485;SDS011;53303;47.476;8.084;2023-08-06T10:06:37;0.63;;;0.40;;
66485;SDS011;53303;47.476;8.084;2023-08-06T10:09:04;0.57;;;0.50;;
66485;SDS011;53303;47.476;8.084;2023-08-06T10:11:30;1.25;;;0.40;;
66485;SDS011;53303;47.476;8.084;2023-08-06T10:16:55;1.75;;;0.60;;
66485;SDS011;53303;47.476;8.084;2023-08-06T10:19:23;3.08;;;0.55;;
66485;SDS011;53303;47.476;8.084;2023-08-06T10:24:50;2.63;;;0.50;;
66485;SDS011;53303;47.476;8.084;2023-08-06T10:27:22;2.13;;;0.50;;
66485;SDS011;53303;47.476;8.084;2023-08-06T10:29:47;2.53;;;0.50;;
66485;SDS011;53303;47.476;8.084;2023-08-06T10:32:16;5.47;;;0.38;;
66485;SDS011;53303;47.476;8.084;2023-08-06T10:34:54;3.63;;;0.50;;
66485;SDS011;53303;47.476;8.084;2023-08-06T10:37:23;4.88;;;0.60;;
66485;SDS011;53303;47.476;8.084;2023-08-06T10:39:59;6.85;;;0.88;;
66485;SDS011;53303;47.476;8.084;2023-08-06T10:42:27;1.33;;;0.20;;
66485;SDS011;53303;47.476;8.084;2023-08-06T10:45:13;5.00;;;0.57;;
66485;SDS011;53303;47.476;8.084;2023-08-06T10:47:40;0.75;;;0.20;;
66485;SDS011;53303;47.476;8.084;2023-08-06T10:50:07;2.17;;;0.60;;
66485;SDS011;53303;47.476;8.084;2023-08-06T10:52:34;0.95;;;0.52;;
66485;SDS011;53303;47.476;8.084;2023-08-06T10:54:59;0.80;;;0.50;;
66485;SDS011;53303;47.476;8.084;2023-08-06T10:57:27;2.38;;;0.50;;
66485;SDS011;53303;47.476;8.084;2023-08-06T10:59:53;1.33;;;0.30;;
66485;SDS011;53303;47.476;8.084;2023-08-06T11:02:18;1.10;;;0.40;;
66485;SDS011;53303;47.476;8.084;2023-08-06T11:04:43;2.08;;;0.60;;
66485;SDS011;53303;47.476;8.084;2023-08-06T11:07:09;1.27;;;0.22;;
66485;SDS011;53303;47.476;8.084;2023-08-06T11:09:38;1.52;;;0.60;;
66485;SDS011;53303;47.476;8.084;2023-08-06T11:12:09;1.20;;;0.40;;
66485;SDS011;53303;47.476;8.084;2023-08-06T11:14:37;0.10;;;0.10;;
66485;SDS011;53303;47.476;8.084;2023-08-06T11:17:04;0.93;;;0.40;;
66485;SDS011;53303;47.476;8.084;2023-08-06T11:19:33;5.35;;;0.77;;
66485;SDS011;53303;47.476;8.084;2023-08-06T11:22:00;1.83;;;0.50;;
66485;SDS011;53303;47.476;8.084;2023-08-06T11:24:27;1.70;;;0.40;;
66485;SDS011;53303;47.476;8.084;2023-08-06T11:26:52;0.57;;;0.20;;
66485;SDS011;53303;47.476;8.084;2023-08-06T11:29:17;1.35;;;0.20;;
66485;SDS011;53303;47.476;8.084;2023-08-06T11:31:44;0.75;;;0.30;;
66485;SDS011;53303;47.476;8.084;2023-08-06T11:34:09;1.50;;;0.57;;
66485;SDS011;53303;47.476;8.084;2023-08-06T11:36:40;1.40;;;0.40;;
66485;SDS011;53303;47.476;8.084;2023-08-06T11:39:06;1.77;;;0.32;;
66485;SDS011;53303;47.476;8.084;2023-08-06T11:41:32;0.82;;;0.40;;
66485;SDS011;53303;47.476;8.084;2023-08-06T11:44:03;2.67;;;0.30;;
66485;SDS011;53303;47.476;8.084;2023-08-06T11:46:28;1.00;;;0.40;;
66485;SDS011;53303;47.476;8.084;2023-08-06T11:48:59;1.23;;;0.30;;
66485;SDS011;53303;47.476;8.084;2023-08-06T11:51:24;0.77;;;0.20;;
66485;SDS011;53303;47.476;8.084;2023-08-06T11:53:57;3.00;;;0.30;;
66485;SDS011;53303;47.476;8.084;2023-08-06T11:56:23;0.65;;;0.30;;
66485;SDS011;53303;47.476;8.084;2023-08-06T11:58:52;0.82;;;0.22;;
66485;SDS011;53303;47.476;8.084;2023-08-06T12:01:19;0.70;;;0.40;;
66485;SDS011;53303;47.476;8.084;2023-08-06T12:03:44;1.60;;;0.70;;
66485;SDS011;53303;47.476;8.084;2023-08-06T12:06:10;2.28;;;0.50;;
66485;SDS011;53303;47.476;8.084;2023-08-06T12:08:36;2.38;;;0.52;;
66485;SDS011;53303;47.476;8.084;2023-08-06T12:11:03;0.98;;;0.40;;
66485;SDS011;53303;47.476;8.084;2023-08-06T12:13:28;0.90;;;0.30;;
66485;SDS011;53303;47.476;8.084;2023-08-06T12:15:56;0.52;;;0.47;;
66485;SDS011;53303;47.476;8.084;2023-08-06T12:18:24;0.55;;;0.43;;
66485;SDS011;53303;47.476;8.084;2023-08-06T12:20:49;1.45;;;0.60;;
66485;SDS011;53303;47.476;8.084;2023-08-06T12:23:15;1.23;;;0.40;;
66485;SDS011;53303;47.476;8.084;2023-08-06T12:25:43;1.33;;;0.30;;
66485;SDS011;53303;47.476;8.084;2023-08-06T12:28:09;2.20;;;0.20;;
66485;SDS011;53303;47.476;8.084;2023-08-06T12:30:35;0.88;;;0.40;;
66485;SDS011;53303;47.476;8.084;2023-08-06T12:33:06;1.20;;;0.50;;
66485;SDS011;53303;47.476;8.084;2023-08-06T12:35:32;1.10;;;0.50;;
66485;SDS011;53303;47.476;8.084;2023-08-06T12:37:57;1.00;;;0.40;;
66485;SDS011;53303;47.476;8.084;2023-08-06T12:40:23;0.38;;;0.38;;
66485;SDS011;53303;47.476;8.084;2023-08-06T12:42:51;0.90;;;0.50;;
66485;SDS011;53303;47.476;8.084;2023-08-06T12:45:17;1.58;;;0.60;;
66485;SDS011;53303;47.476;8.084;2023-08-06T12:47:45;0.55;;;0.30;;
66485;SDS011;53303;47.476;8.084;2023-08-06T12:50:11;0.52;;;0.35;;
66485;SDS011;53303;47.476;8.084;2023-08-06T12:52:36;1.17;;;0.32;;
66485;SDS011;53303;47.476;8.084;2023-08-06T12:55:04;1.13;;;0.40;;
66485;SDS011;53303;47.476;8.084;2023-08-06T12:57:32;1.50;;;0.60;;
66485;SDS011;53303;47.476;8.084;2023-08-06T12:59:58;3.40;;;0.47;;
66485;SDS011;53303;47.476;8.084;2023-08-06T13:02:28;0.63;;;0.40;;
66485;SDS011;53303;47.476;8.084;2023-08-06T13:04:55;2.13;;;0.50;;
66485;SDS011;53303;47.476;8.084;2023-08-06T13:07:20;1.63;;;0.60;;
66485;SDS011;53303;47.476;8.084;2023-08-06T13:09:46;2.75;;;0.60;;
66485;SDS011;53303;47.476;8.084;2023-08-06T13:12:16;7.18;;;0.70;;
66485;SDS011;53303;47.476;8.084;2023-08-06T13:14:44;5.10;;;0.60;;
66485;SDS011;53303;47.476;8.084;2023-08-06T13:17:11;2.25;;;0.68;;
66485;SDS011;53303;47.476;8.084;2023-08-06T13:19:36;4.05;;;0.80;;
66485;SDS011;53303;47.476;8.084;2023-08-06T13:22:02;6.15;;;0.65;;
66485;SDS011;53303;47.476;8.084;2023-08-06T13:24:33;4.18;;;0.60;;
66485;SDS011;53303;47.476;8.084;2023-08-06T13:27:01;3.60;;;0.70;;
66485;SDS011;53303;47.476;8.084;2023-08-06T13:29:27;4.68;;;0.90;;
66485;SDS011;53303;47.476;8.084;2023-08-06T13:31:54;28.85;;;2.85;;
66485;SDS011;53303;47.476;8.084;2023-08-06T13:34:20;21.08;;;1.92;;
66485;SDS011;53303;47.476;8.084;2023-08-06T13:36:48;18.05;;;1.67;;
66485;SDS011;53303;47.476;8.084;2023-08-06T13:39:13;59.80;;;6.60;;
66485;SDS011;53303;47.476;8.084;2023-08-06T13:41:41;103.70;;;10.55;;
66485;SDS011;53303;47.476;8.084;2023-08-06T13:44:06;102.57;;;11.73;;
66485;SDS011;53303;47.476;8.084;2023-08-06T13:46:35;114.78;;;12.43;;
66485;SDS011;53303;47.476;8.084;2023-08-06T13:49:01;115.35;;;13.20;;
66485;SDS011;53303;47.476;8.084;2023-08-06T13:51:26;280.15;;;32.72;;
66485;SDS011;53303;47.476;8.084;2023-08-06T13:53:54;223.98;;;25.75;;
66485;SDS011;53303;47.476;8.084;2023-08-06T13:56:21;223.18;;;24.42;;
66485;SDS011;53303;47.476;8.084;2023-08-06T13:58:47;192.75;;;20.48;;
66485;SDS011;53303;47.476;8.084;2023-08-06T14:01:13;260.02;;;29.80;;
66485;SDS011;53303;47.476;8.084;2023-08-06T14:03:41;220.80;;;25.65;;
66485;SDS011;53303;47.476;8.084;2023-08-06T14:06:07;211.13;;;23.75;;
66485;SDS011;53303;47.476;8.084;2023-08-06T14:08:32;204.02;;;22.98;;
66485;SDS011;53303;47.476;8.084;2023-08-06T14:10:58;198.55;;;20.90;;
66485;SDS011;53303;47.476;8.084;2023-08-06T14:13:23;152.90;;;19.17;;
66485;SDS011;53303;47.476;8.084;2023-08-06T14:15:49;132.73;;;15.82;;
66485;SDS011;53303;47.476;8.084;2023-08-06T14:18:15;139.27;;;16.33;;
66485;SDS011;53303;47.476;8.084;2023-08-06T14:20:41;134.50;;;16.63;;
66485;SDS011;53303;47.476;8.084;2023-08-06T14:23:10;134.15;;;16.60;;
66485;SDS011;53303;47.476;8.084;2023-08-06T14:25:35;118.43;;;14.60;;
66485;SDS011;53303;47.476;8.084;2023-08-06T14:28:01;111.30;;;13.38;;
66485;SDS011;53303;47.476;8.084;2023-08-06T14:30:27;124.03;;;12.73;;
66485;SDS011;53303;47.476;8.084;2023-08-06T14:32:54;104.85;;;12.68;;
66485;SDS011;53303;47.476;8.084;2023-08-06T14:35:20;88.55;;;10.80;;
66485;SDS011;53303;47.476;8.084;2023-08-06T14:37:45;88.47;;;10.30;;
66485;SDS011;53303;47.476;8.084;2023-08-06T14:40:11;86.35;;;9.88;;
66485;SDS011;53303;47.476;8.084;2023-08-06T14:42:36;64.22;;;7.65;;
66485;SDS011;53303;47.476;8.084;2023-08-06T14:45:04;68.50;;;8.00;;
66485;SDS011;53303;47.476;8.084;2023-08-06T14:47:30;71.15;;;8.07;;
66485;SDS011;53303;47.476;8.084;2023-08-06T14:49:58;52.75;;;7.25;;
66485;SDS011;53303;47.476;8.084;2023-08-06T14:52:23;58.97;;;8.05;;
66485;SDS011;53303;47.476;8.084;2023-08-06T14:54:49;55.35;;;7.40;;
66485;SDS011;53303;47.476;8.084;2023-08-06T14:57:17;46.95;;;6.55;;
66485;SDS011;53303;47.476;8.084;2023-08-06T14:59:43;50.08;;;7.28;;